Time;durP1;ratioP1;P1;durP2;ratioP2;P2;SDS_P1;SDS_P2;PMS_P1;PMS_P2;Temp;Humidity;BMP_temperature;BMP_pressure;BME280_temperature;BME280_humidity;BME280_pressure;Samples;Min_cycle;Max_cycle;Signal;HPM_P1;HPM_P2
2023/06/07 00:01:51;;;;;;;3.17;2.45;;;13.90;99.90;;;13.73;100.00;97304.81;5013955;28;20099;-37
2023/06/07 00:04:17;;;;;;;4.13;2.95;;;13.90;99.90;;;13.71;100.00;97304.88;5026424;28;20037;-37
2023/06/07 00:06:43;;;;;;;2.97;2.60;;;13.90;99.90;;;13.70;100.00;97308.44;5022148;28;20044;-37
2023/06/07 00:09:09;;;;;;;4.45;2.65;;;13.80;99.90;;;13.62;100.00;97291.22;5024373;28;20480;-37
2023/06/07 00:11:36;;;;;;;3.60;2.80;;;13.80;99.90;;;13.61;100.00;97294.84;5013145;28;20033;-37
2023/06/07 00:14:02;;;;;;;3.88;3.00;;;13.80;99.90;;;13.56;100.00;97295.06;5016811;28;20509;-37
2023/06/07 00:16:28;;;;;;;3.03;2.60;;;13.80;99.90;;;13.58;100.00;97308.22;5045562;28;20040;-37
2023/06/07 00:18:54;;;;;;;3.80;2.70;;;13.70;99.90;;;13.50;100.00;97298.88;5029684;28;20044;-37
2023/06/07 00:21:20;;;;;;;6.20;2.75;;;13.70;99.90;;;13.46;100.00;97307.91;5026172;28;20071;-37
2023/06/07 00:23:47;;;;;;;3.60;2.63;;;13.60;99.90;;;13.44;100.00;97299.19;5029328;28;20604;-38
2023/06/07 00:26:12;;;;;;;3.95;2.50;;;13.60;99.90;;;13.42;100.00;97306.31;5033170;28;20064;-38
2023/06/07 00:28:38;;;;;;;3.92;2.70;;;13.50;99.90;;;13.38;100.00;97303.94;5027229;28;20033;-38
2023/06/07 00:31:04;;;;;;;3.80;2.65;;;13.50;99.90;;;13.33;100.00;97310.31;5027313;28;20586;-37
2023/06/07 00:33:30;;;;;;;3.40;2.80;;;13.50;99.90;;;13.28;100.00;97295.53;5028037;28;20111;-37
2023/06/07 00:35:56;;;;;;;4.05;2.90;;;13.50;99.90;;;13.28;100.00;97303.47;5035780;28;20060;-37
2023/06/07 00:38:25;;;;;;;3.83;2.60;;;13.40;99.90;;;13.25;100.00;97298.34;5027556;28;20036;-37
2023/06/07 00:41:20;;;;;;;4.00;3.03;;;13.40;99.90;;;13.25;100.00;97303.66;5020709;28;20038;-37
2023/06/07 00:43:47;;;;;;;3.70;2.85;;;13.40;99.90;;;13.16;100.00;97297.84;5022629;28;20034;-37
2023/06/07 00:46:17;;;;;;;5.05;3.15;;;13.40;99.90;;;13.18;100.00;97292.50;5017225;28;20054;-37
2023/06/07 00:48:43;;;;;;;4.13;3.15;;;13.30;99.90;;;13.15;100.00;97296.16;5020558;28;20115;-37
2023/06/07 00:51:10;;;;;;;4.88;3.28;;;13.30;99.90;;;13.13;100.00;97303.28;5020251;28;20443;-37
2023/06/07 00:53:37;;;;;;;3.50;3.05;;;13.30;99.90;;;13.10;100.00;97294.66;5022556;28;20020;-38
2023/06/07 00:56:05;;;;;;;5.05;3.33;;;13.30;99.90;;;13.09;100.00;97306.19;5022524;28;20029;-37
2023/06/07 00:58:32;;;;;;;3.42;3.10;;;13.30;99.90;;;13.06;100.00;97296.59;5024270;28;20148;-39
2023/06/07 01:01:00;;;;;;;4.45;3.30;;;13.20;99.90;;;13.01;100.00;97295.97;5025222;28;20755;-37
2023/06/07 01:03:27;;;;;;;4.28;3.45;;;13.20;99.90;;;13.00;100.00;97302.19;5031389;28;20041;-37
2023/06/07 01:05:54;;;;;;;4.60;3.35;;;13.20;99.90;;;12.89;100.00;97293.91;5021020;28;20540;-37
2023/06/07 01:08:21;;;;;;;4.70;3.03;;;13.10;99.90;;;12.91;100.00;97307.94;5023997;28;20029;-37
2023/06/07 01:10:48;;;;;;;3.78;2.92;;;13.10;99.90;;;12.88;100.00;97300.13;5024055;28;20756;-37
2023/06/07 01:13:15;;;;;;;4.70;3.15;;;13.10;99.90;;;12.86;100.00;97304.63;5026408;28;20021;-37
2023/06/07 01:15:41;;;;;;;5.60;3.28;;;13.00;99.90;;;12.82;100.00;97300.44;5036745;28;20033;-37
2023/06/07 01:18:09;;;;;;;3.40;3.03;;;13.00;99.90;;;12.78;100.00;97300.56;5026145;28;20142;-38
2023/06/07 01:20:38;;;;;;;3.53;3.10;;;13.00;99.90;;;12.69;100.00;97292.22;5025482;28;20029;-38
2023/06/07 01:23:07;;;;;;;4.53;3.15;;;12.90;99.90;;;12.73;100.00;97304.38;5029301;28;20040;-38
2023/06/07 01:25:33;;;;;;;4.72;3.53;;;12.90;99.90;;;12.65;100.00;97302.09;5025943;28;20064;-38
2023/06/07 01:28:01;;;;;;;5.13;3.03;;;12.80;99.90;;;12.64;100.00;97297.72;5027017;28;20127;-38
2023/06/07 01:30:31;;;;;;;4.32;3.47;;;12.80;99.90;;;12.41;100.00;97265.25;5016533;28;21368;-38
2023/06/07 01:32:58;;;;;;;5.15;3.70;;;12.80;99.90;;;12.57;100.00;97301.56;5026334;28;20055;-37
2023/06/07 01:35:25;;;;;;;4.13;3.50;;;12.70;99.90;;;12.53;100.00;97292.06;5022049;28;20025;-37
2023/06/07 01:37:53;;;;;;;4.18;3.05;;;12.70;99.90;;;12.47;100.00;97287.94;5027214;28;20496;-37
2023/06/07 01:40:20;;;;;;;5.10;3.67;;;12.70;99.90;;;12.48;100.00;97299.38;5037915;28;20057;-37
2023/06/07 01:42:47;;;;;;;4.13;3.55;;;12.70;99.90;;;12.46;100.00;97303.88;5017339;28;20091;-38
2023/06/07 01:45:13;;;;;;;6.80;3.42;;;12.70;99.90;;;12.42;100.00;97297.88;5027718;28;20032;-38
2023/06/07 01:47:39;;;;;;;4.53;3.40;;;12.60;99.90;;;12.38;100.00;97293.63;5028679;28;20037;-38
2023/06/07 01:50:08;;;;;;;4.15;3.40;;;12.60;99.90;;;12.36;100.00;97290.19;5030762;28;20407;-38
2023/06/07 01:52:33;;;;;;;4.05;3.40;;;12.60;99.90;;;12.31;100.00;97285.13;5032528;28;20119;-38
2023/06/07 01:55:00;;;;;;;4.80;3.30;;;12.50;99.90;;;12.32;100.00;97291.28;5018304;28;20439;-38
2023/06/07 01:58:15;;;;;;;6.22;4.15;;;12.50;99.90;;;12.28;100.00;97290.56;5021845;28;20029;-37
2023/06/07 02:01:20;;;;;;;5.50;3.83;;;12.40;99.90;;;12.26;100.00;97284.47;5021617;28;20063;-38
2023/06/07 02:03:52;;;;;;;4.95;3.70;;;12.50;99.90;;;12.24;100.00;97288.97;5024867;28;20040;-37
2023/06/07 02:06:34;;;;;;;4.53;3.60;;;12.40;99.90;;;12.23;100.00;97284.59;5043052;28;20035;-37
2023/06/07 02:09:06;;;;;;;4.53;3.55;;;12.40;99.90;;;12.09;100.00;97264.06;5027329;28;20069;-37
2023/06/07 02:11:33;;;;;;;6.55;3.72;;;12.40;99.90;;;12.21;100.00;97275.91;5028946;28;20029;-38
2023/06/07 02:13:59;;;;;;;5.10;3.50;;;12.40;99.90;;;12.20;100.00;97284.75;5025317;28;20099;-37
2023/06/07 02:16:36;;;;;;;8.57;4.22;;;12.40;99.90;;;12.17;100.00;97269.88;5023878;28;20049;-37
2023/06/07 02:19:06;;;;;;;5.85;4.30;;;12.40;99.90;;;12.20;100.00;97275.03;5028093;28;20057;-38
2023/06/07 02:21:36;;;;;;;4.68;3.97;;;12.40;99.90;;;12.19;100.00;97270.69;5030708;28;20044;-37
2023/06/07 02:24:03;;;;;;;5.03;3.90;;;12.40;99.90;;;12.17;100.00;97266.41;5019810;28;20071;-37
2023/06/07 02:26:29;;;;;;;5.32;3.80;;;12.40;99.90;;;12.12;100.00;97273.66;5021103;28;20397;-37
2023/06/07 02:28:55;;;;;;;5.10;3.97;;;12.30;99.90;;;12.07;100.00;97270.38;5006014;28;20074;-37
2023/06/07 02:31:21;;;;;;;8.20;4.35;;;12.30;99.90;;;12.10;100.00;97281.66;5023808;28;20036;-37
2023/06/07 02:33:50;;;;;;;5.50;4.18;;;12.30;99.90;;;12.10;100.00;97279.03;5026031;28;20028;-38
2023/06/07 02:36:17;;;;;;;5.05;4.18;;;12.30;99.90;;;12.08;100.00;97283.53;5033326;28;20424;-37
2023/06/07 02:38:43;;;;;;;5.78;4.35;;;12.30;99.90;;;12.06;100.00;97282.75;5019659;28;20180;-37
2023/06/07 02:41:09;;;;;;;4.57;4.00;;;12.30;99.90;;;12.07;100.00;97280.94;5018961;28;20578;-37
2023/06/07 02:43:36;;;;;;;5.25;3.97;;;12.20;99.90;;;12.04;100.00;97284.56;5030753;28;20045;-38
2023/06/07 02:46:02;;;;;;;8.23;4.20;;;12.30;99.90;;;12.05;100.00;97283.66;5029460;28;20040;-38
2023/06/07 02:48:28;;;;;;;6.28;4.75;;;12.20;99.90;;;12.03;100.00;97282.88;5024866;28;20828;-37
2023/06/07 02:50:53;;;;;;;6.05;4.20;;;12.20;99.90;;;12.00;100.00;97290.94;5032021;28;20945;-37
2023/06/07 02:53:19;;;;;;;7.45;4.55;;;12.20;99.90;;;11.97;100.00;97294.56;5036339;28;20025;-38
2023/06/07 02:55:45;;;;;;;6.03;4.57;;;12.20;99.90;;;11.95;100.00;97285.88;5026429;28;20540;-37
2023/06/07 02:58:10;;;;;;;5.70;4.32;;;12.20;99.90;;;11.94;100.00;97278.84;5032838;28;20323;-36
2023/06/07 03:00:37;;;;;;;5.30;4.57;;;12.20;99.90;;;11.93;100.00;97281.56;5020491;28;20106;-37
2023/06/07 03:03:05;;;;;;;6.05;4.20;;;12.20;99.90;;;11.83;100.00;97267.88;5027255;28;20040;-38
2023/06/07 03:05:31;;;;;;;5.78;4.55;;;12.10;99.90;;;11.85;100.00;97284.50;5030714;28;20040;-37
2023/06/07 03:07:59;;;;;;;7.95;4.43;;;12.00;99.90;;;11.85;100.00;97284.50;5023283;28;20021;-37
2023/06/07 03:10:26;;;;;;;8.10;4.70;;;12.10;99.90;;;11.83;100.00;97278.44;5027305;28;20067;-37
2023/06/07 03:12:52;;;;;;;5.35;4.25;;;12.10;99.90;;;11.81;100.00;97285.56;5025063;28;20082;-37
2023/06/07 03:15:17;;;;;;;6.55;4.03;;;12.00;99.90;;;11.65;100.00;97264.25;5025559;28;20029;-37
2023/06/07 03:17:44;;;;;;;5.20;4.65;;;12.00;99.90;;;11.74;100.00;97287.63;5029807;28;20137;-37
2023/06/07 03:20:10;;;;;;;5.03;3.83;;;12.00;99.90;;;11.75;100.00;97288.47;5027058;28;20036;-38
2023/06/07 03:22:36;;;;;;;6.65;4.78;;;12.00;99.90;;;11.64;100.00;97281.00;5024420;28;20060;-38
2023/06/07 03:25:03;;;;;;;4.50;4.10;;;12.00;99.90;;;11.72;100.00;97296.53;5022453;28;20033;-38
2023/06/07 03:27:32;;;;;;;7.90;4.72;;;11.90;99.90;;;11.71;100.00;97294.81;5016273;28;20517;-37
2023/06/07 03:29:59;;;;;;;5.55;4.18;;;11.90;99.90;;;11.70;100.00;97290.44;5024547;28;20091;-38
2023/06/07 03:32:25;;;;;;;6.15;4.65;;;11.90;99.90;;;11.70;100.00;97287.81;5026863;28;20208;-37
2023/06/07 03:34:51;;;;;;;5.80;4.57;;;11.90;99.90;;;11.71;100.00;97290.38;5026119;28;20033;-39
2023/06/07 03:37:16;;;;;;;7.07;4.28;;;11.90;99.90;;;11.71;100.00;97285.09;5030966;28;20033;-37
2023/06/07 03:39:42;;;;;;;5.90;4.10;;;11.90;99.90;;;11.73;100.00;97290.31;5026600;28;20040;-38
2023/06/07 03:42:08;;;;;;;4.63;4.00;;;12.00;99.90;;;11.72;100.00;97286.84;5031141;28;20464;-38
2023/06/07 03:44:34;;;;;;;4.70;3.60;;;11.90;99.90;;;11.67;100.00;97286.16;5030248;28;20112;-37
2023/06/07 03:47:00;;;;;;;4.90;4.10;;;12.00;99.90;;;11.74;100.00;97292.06;5020420;28;20383;-37
2023/06/07 03:49:25;;;;;;;4.95;3.88;;;12.00;99.90;;;11.73;100.00;97295.59;5031709;28;20123;-37
2023/06/07 03:51:51;;;;;;;4.95;3.53;;;12.00;99.90;;;11.73;100.00;97291.19;5035729;28;20098;-38
2023/06/07 03:54:17;;;;;;;5.13;3.95;;;12.00;99.90;;;11.76;100.00;97298.13;5025488;28;20163;-38
2023/06/07 03:56:42;;;;;;;5.70;3.72;;;12.00;99.90;;;11.78;100.00;97291.00;5032717;28;20028;-37
2023/06/07 03:59:08;;;;;;;4.70;3.85;;;12.00;99.90;;;11.82;100.00;97300.50;5022537;28;20226;-38
2023/06/07 04:01:34;;;;;;;4.13;3.72;;;12.00;99.90;;;11.84;100.00;97294.22;5018335;28;20047;-37
2023/06/07 04:04:00;;;;;;;5.97;4.00;;;12.10;99.90;;;11.90;100.00;97293.13;5030909;28;20032;-37
2023/06/07 04:06:26;;;;;;;5.05;4.18;;;12.10;99.90;;;11.92;100.00;97288.63;5027093;28;20028;-38
2023/06/07 04:08:53;;;;;;;4.78;4.00;;;12.20;99.90;;;12.02;100.00;97289.94;5019463;28;20047;-37
2023/06/07 04:11:19;;;;;;;4.10;3.70;;;12.20;99.90;;;12.09;100.00;97298.44;5026297;28;20041;-37
2023/06/07 04:13:45;;;;;;;6.60;4.53;;;12.30;99.90;;;12.15;100.00;97294.66;5026367;28;20032;-37
2023/06/07 04:16:11;;;;;;;5.57;4.35;;;12.40;99.90;;;12.14;100.00;97285.03;5017553;28;20034;-38
2023/06/07 04:18:37;;;;;;;5.60;4.18;;;12.40;99.90;;;12.29;100.00;97296.69;5023263;28;20078;-38
2023/06/07 04:21:03;;;;;;;6.50;4.78;;;12.50;99.90;;;12.36;100.00;97296.38;5026011;28;20033;-38
2023/06/07 04:23:29;;;;;;;6.22;4.47;;;12.60;99.90;;;12.40;100.00;97300.56;5027888;28;20067;-37
2023/06/07 04:25:55;;;;;;;5.47;4.30;;;12.60;99.90;;;12.47;100.00;97292.34;5017741;28;20748;-37
2023/06/07 04:28:23;;;;;;;6.40;4.20;;;12.70;99.90;;;12.55;100.00;97293.72;5028600;28;20270;-37
2023/06/07 04:30:51;;;;;;;5.95;4.97;;;12.80;99.90;;;12.69;100.00;97301.00;5020968;28;20127;-36
2023/06/07 04:33:19;;;;;;;4.57;3.97;;;12.90;99.90;;;12.78;100.00;97297.91;5027386;28;20393;-37
2023/06/07 04:35:45;;;;;;;6.20;4.10;;;13.00;99.90;;;12.88;100.00;97297.47;5028658;28;20021;-37
2023/06/07 04:38:15;;;;;;;5.03;4.22;;;13.10;99.90;;;12.96;100.00;97293.53;5025720;28;20037;-36
2023/06/07 04:40:42;;;;;;;8.63;4.40;;;13.20;99.90;;;13.06;100.00;97291.28;5024024;28;20576;-37
2023/06/07 04:43:10;;;;;;;5.53;4.35;;;13.30;99.90;;;13.14;100.00;97297.09;5034507;28;20025;-38
2023/06/07 04:45:39;;;;;;;6.18;4.20;;;13.40;99.90;;;13.24;100.00;97296.63;5025519;28;20051;-38
2023/06/07 04:48:07;;;;;;;8.30;4.03;;;13.40;99.90;;;13.31;100.00;97293.63;5029181;28;20033;-38
2023/06/07 04:50:38;;;;;;;6.15;4.28;;;13.50;99.90;;;13.40;100.00;97291.47;5029794;28;20163;-38
2023/06/07 04:53:04;;;;;;;6.17;4.23;;;13.60;99.90;;;13.46;100.00;97294.66;5017623;28;20030;-38
2023/06/07 04:55:34;;;;;;;5.82;4.55;;;13.70;99.90;;;13.46;100.00;97284.06;5022001;28;20039;-38
2023/06/07 04:58:03;;;;;;;5.88;4.63;;;13.70;99.90;;;13.60;100.00;97301.06;5022323;28;20048;-38
2023/06/07 05:00:30;;;;;;;7.00;4.93;;;13.80;99.90;;;13.68;100.00;97304.19;5026939;28;20087;-38
2023/06/07 05:02:57;;;;;;;4.97;3.83;;;13.90;99.90;;;13.72;100.00;97295.97;5029508;28;20037;-38
2023/06/07 05:05:23;;;;;;;4.57;3.63;;;14.00;99.90;;;13.85;100.00;97306.81;5030704;28;21976;-37
2023/06/07 05:07:49;;;;;;;5.13;3.90;;;14.00;99.90;;;13.93;100.00;97303.78;5028731;28;20115;-37
2023/06/07 05:10:18;;;;;;;4.63;3.85;;;14.20;99.90;;;14.02;100.00;97313.91;5032472;28;20484;-37
2023/06/07 05:12:45;;;;;;;7.13;4.47;;;14.20;99.90;;;14.11;100.00;97315.22;5029424;28;20032;-37
2023/06/07 05:15:11;;;;;;;5.65;3.83;;;14.30;99.90;;;14.18;100.00;97316.59;5026930;28;20021;-38
2023/06/07 05:17:38;;;;;;;6.38;3.70;;;14.40;99.90;;;14.23;100.00;97322.53;5025012;28;20456;-38
2023/06/07 05:20:12;;;;;;;5.80;3.92;;;14.40;99.90;;;14.27;100.00;97323.22;5023016;28;20799;-38
2023/06/07 05:22:41;;;;;;;5.13;3.90;;;14.40;99.90;;;14.32;100.00;97319.38;5019303;28;20119;-39
2023/06/07 05:25:09;;;;;;;4.63;3.70;;;14.50;99.90;;;14.53;100.00;97324.47;5024120;28;20044;-38
2023/06/07 05:27:38;;;;;;;5.07;4.20;;;14.60;99.90;;;15.07;100.00;97322.41;5025600;28;20061;-38
2023/06/07 05:30:06;;;;;;;5.85;4.15;;;14.80;99.90;;;15.46;100.00;97325.53;5021380;28;20021;-38
2023/06/07 05:32:33;;;;;;;8.10;3.58;;;15.10;99.90;;;15.59;100.00;97317.69;5020933;28;20205;-38
2023/06/07 05:34:59;;;;;;;5.18;3.97;;;15.30;99.90;;;15.55;100.00;97321.47;5026098;28;20504;-38
2023/06/07 05:37:26;;;;;;;6.50;3.63;;;15.40;99.90;;;15.50;100.00;97331.50;5016809;28;20073;-38
2023/06/07 05:39:53;;;;;;;5.95;4.07;;;15.40;99.90;;;15.40;100.00;97331.19;5020873;28;20041;-38
2023/06/07 05:42:19;;;;;;;4.57;3.85;;;15.40;99.90;;;15.36;100.00;97319.91;5024906;28;20028;-37
2023/06/07 05:44:46;;;;;;;10.18;5.10;;;15.40;99.90;;;15.34;100.00;97324.41;5024575;28;20447;-37
2023/06/07 05:47:12;;;;;;;6.20;4.93;;;15.40;99.90;;;15.33;100.00;97330.69;5021023;28;20230;-37
2023/06/07 05:49:38;;;;;;;6.80;4.35;;;15.40;99.90;;;15.39;100.00;97329.47;5021236;28;20430;-36
2023/06/07 05:52:05;;;;;;;6.45;3.97;;;15.50;99.90;;;15.43;100.00;97326.56;5026830;28;20033;-37
2023/06/07 05:54:31;;;;;;;3.83;3.30;;;15.60;99.90;;;15.52;100.00;97316.34;5027086;28;20028;-37
2023/06/07 05:56:56;;;;;;;9.05;5.40;;;15.70;99.90;;;15.66;100.00;97327.00;5027301;28;20620;-36
2023/06/07 05:59:22;;;;;;;6.97;4.45;;;15.80;99.90;;;15.75;100.00;97323.00;5022841;28;20514;-36
2023/06/07 06:01:48;;;;;;;5.88;4.47;;;15.90;99.90;;;15.87;100.00;97324.09;5017067;28;20041;-37
2023/06/07 06:04:16;;;;;;;6.50;5.00;;;16.00;99.90;;;15.97;100.00;97326.09;5028441;28;20672;-36
2023/06/07 06:06:42;;;;;;;6.85;5.00;;;16.10;99.90;;;16.03;100.00;97319.56;5017929;28;20025;-37
2023/06/07 06:09:07;;;;;;;6.28;4.63;;;16.20;99.90;;;16.27;100.00;97333.16;5019653;28;20037;-37
2023/06/07 06:11:33;;;;;;;7.40;4.78;;;16.30;99.90;;;16.47;100.00;97329.25;5020781;28;20028;-36
2023/06/07 06:13:59;;;;;;;6.10;4.10;;;16.50;99.90;;;16.56;100.00;97330.50;5019295;28;20021;-37
2023/06/07 06:16:24;;;;;;;5.78;4.13;;;16.60;99.90;;;16.68;100.00;97331.56;5028273;28;20017;-37
2023/06/07 06:18:51;;;;;;;6.45;4.68;;;16.70;99.90;;;16.86;100.00;97327.75;5022899;28;20492;-37
2023/06/07 06:21:17;;;;;;;4.55;3.58;;;16.90;99.90;;;17.04;100.00;97324.88;5027869;28;20396;-37
2023/06/07 06:23:42;;;;;;;6.10;4.22;;;17.10;99.90;;;17.21;100.00;97324.66;5018012;28;20469;-37
2023/06/07 06:26:08;;;;;;;4.97;3.60;;;17.20;99.90;;;17.39;100.00;97322.59;5029478;28;20435;-37
2023/06/07 06:28:34;;;;;;;5.25;4.30;;;17.30;99.90;;;17.52;100.00;97318.16;5038563;28;20058;-37
2023/06/07 06:31:03;;;;;;;5.35;4.57;;;17.40;99.90;;;17.64;100.00;97326.28;5029998;28;20469;-37
2023/06/07 06:33:29;;;;;;;6.00;4.47;;;17.60;99.90;;;17.71;99.63;97322.25;5025109;28;20116;-37
2023/06/07 06:35:55;;;;;;;5.07;4.05;;;17.70;99.90;;;17.86;98.28;97317.75;5033230;28;20037;-37
2023/06/07 06:38:20;;;;;;;4.68;3.88;;;17.90;99.90;;;17.99;96.85;97326.63;5036647;28;20044;-38
2023/06/07 06:40:46;;;;;;;5.22;4.05;;;18.00;99.90;;;18.14;95.62;97316.69;5034711;28;20029;-37
2023/06/07 06:43:12;;;;;;;6.40;4.57;;;18.10;99.90;;;18.24;93.44;97333.78;5038209;28;20484;-37
2023/06/07 06:45:38;;;;;;;4.93;3.75;;;18.20;99.90;;;18.30;91.89;97335.19;5027388;28;20316;-37
2023/06/07 06:48:06;;;;;;;5.60;4.03;;;18.20;99.90;;;18.37;93.56;97325.78;5033424;28;20040;-37
2023/06/07 06:50:31;;;;;;;4.40;3.40;;;18.30;99.90;;;18.54;95.34;97332.63;5038647;28;20226;-37
2023/06/07 06:52:57;;;;;;;4.82;3.30;;;18.40;99.90;;;18.60;93.75;97332.19;5034252;28;20025;-37
2023/06/07 06:55:23;;;;;;;5.95;3.35;;;18.50;99.90;;;18.68;92.37;97336.97;5041617;28;20119;-37
2023/06/07 06:57:50;;;;;;;5.15;3.65;;;18.60;99.90;;;18.79;91.67;97337.09;5024344;28;20111;-37
2023/06/07 07:00:16;;;;;;;6.82;4.15;;;18.70;99.90;;;18.82;88.98;97331.53;5021407;28;20112;-37
2023/06/07 07:02:42;;;;;;;5.63;3.35;;;18.70;99.90;;;18.85;89.86;97334.00;5022421;28;20040;-37
2023/06/07 07:05:09;;;;;;;6.43;3.70;;;18.80;99.90;;;19.02;89.17;97337.25;5035392;28;20289;-37
2023/06/07 07:07:35;;;;;;;6.57;3.78;;;18.90;99.90;;;19.06;86.68;97338.78;5028480;28;20033;-37
2023/06/07 07:10:01;;;;;;;5.30;4.18;;;19.00;99.90;;;18.84;85.57;97339.44;5025960;28;20028;-37
2023/06/07 07:12:27;;;;;;;5.88;3.63;;;18.90;99.90;;;18.94;87.11;97335.16;5035269;28;20036;-37
2023/06/07 07:14:52;;;;;;;4.93;3.90;;;18.90;99.90;;;19.07;85.90;97340.47;5035164;28;20032;-37
2023/06/07 07:17:19;;;;;;;3.63;3.22;;;19.00;99.90;;;19.10;84.70;97345.59;5036304;28;20660;-38
2023/06/07 07:19:45;;;;;;;4.50;3.33;;;19.00;99.90;;;19.22;84.84;97343.84;5035832;28;20513;-37
2023/06/07 07:22:10;;;;;;;4.78;4.10;;;19.10;99.90;;;19.24;85.21;97342.78;5035239;28;20052;-37
2023/06/07 07:24:36;;;;;;;3.85;2.80;;;19.20;99.90;;;19.34;83.22;97336.75;5025528;28;20489;-37
2023/06/07 07:27:02;;;;;;;3.67;2.83;;;19.30;99.90;;;19.46;83.08;97336.69;5034644;28;20111;-37
2023/06/07 07:29:28;;;;;;;4.97;3.50;;;19.40;99.90;;;19.52;82.93;97337.22;5009538;28;20082;-38
2023/06/07 07:31:54;;;;;;;3.42;3.00;;;19.50;99.90;;;19.60;80.18;97342.84;5010143;28;20044;-38
2023/06/07 07:34:19;;;;;;;4.88;2.90;;;19.60;99.90;;;19.69;81.43;97338.63;5014337;28;20440;-36
2023/06/07 07:36:45;;;;;;;3.75;2.65;;;19.60;99.90;;;19.85;81.26;97331.19;5020291;28;20043;-38
2023/06/07 07:39:15;;;;;;;4.15;3.13;;;19.80;99.90;;;19.82;77.09;97336.75;5037473;28;20043;-37
2023/06/07 07:41:41;;;;;;;3.55;3.00;;;19.80;99.90;;;19.81;79.82;97329.69;5033919;28;21051;-37
2023/06/07 07:44:07;;;;;;;3.28;2.30;;;19.80;99.90;;;19.93;79.60;97346.66;5039245;28;22301;-37
2023/06/07 07:46:33;;;;;;;5.97;2.75;;;19.90;99.90;;;20.03;79.28;97327.09;5025500;28;20080;-38
2023/06/07 07:48:59;;;;;;;4.15;2.40;;;20.00;99.90;;;20.17;78.96;97335.88;5030529;28;20504;-37
2023/06/07 07:51:25;;;;;;;3.50;2.80;;;20.10;99.90;;;20.26;78.53;97342.34;5037153;28;20025;-37
2023/06/07 07:53:52;;;;;;;4.40;2.80;;;20.20;99.90;;;20.36;77.06;97344.22;5031626;28;20049;-37
2023/06/07 07:56:19;;;;;;;5.28;3.47;;;20.30;99.90;;;20.48;76.80;97344.25;5027214;28;20037;-37
2023/06/07 07:58:45;;;;;;;3.17;2.40;;;20.40;99.90;;;20.53;75.66;97328.63;5023877;28;20074;-39
2023/06/07 08:01:11;;;;;;;4.97;2.42;;;20.50;99.90;;;20.65;74.83;97337.59;5023808;28;20036;-39
2023/06/07 08:03:37;;;;;;;3.28;2.50;;;20.60;99.90;;;20.69;72.51;97342.59;5034435;28;20039;-38
2023/06/07 08:06:03;;;;;;;3.80;2.50;;;20.70;99.90;;;20.75;70.90;97346.59;5027412;28;20199;-38
2023/06/07 08:08:29;;;;;;;4.47;2.53;;;20.70;99.90;;;20.77;71.71;97342.81;5034407;28;20191;-38
2023/06/07 08:10:55;;;;;;;3.08;2.17;;;20.70;99.90;;;20.82;71.07;97347.81;5027425;28;20083;-39
2023/06/07 08:13:20;;;;;;;4.53;2.67;;;20.80;99.90;;;20.85;70.07;97344.03;5032834;28;20036;-38
2023/06/07 08:15:47;;;;;;;5.28;3.00;;;20.80;99.90;;;20.88;68.31;97339.28;5018403;28;20123;-39
2023/06/07 08:18:13;;;;;;;3.50;2.75;;;20.80;99.90;;;20.97;69.93;97345.75;5035726;28;20043;-38
2023/06/07 08:20:38;;;;;;;2.50;2.20;;;20.90;99.90;;;21.11;69.76;97337.44;5029083;28;20462;-38
2023/06/07 08:23:05;;;;;;;2.65;2.20;;;21.00;99.90;;;21.06;72.14;97336.94;5018107;28;20045;-39
2023/06/07 08:25:31;;;;;;;2.70;1.88;;;21.10;99.90;;;21.15;69.56;97328.16;5037494;28;20155;-38
2023/06/07 08:27:57;;;;;;;3.22;1.67;;;21.00;99.90;;;21.17;67.00;97334.28;5035444;28;20176;-38
2023/06/07 08:30:23;;;;;;;5.55;2.10;;;21.10;99.90;;;21.20;68.81;97327.81;5029236;28;20025;-41
2023/06/07 08:32:50;;;;;;;2.00;1.80;;;21.20;99.90;;;21.23;66.38;97326.69;5033335;28;20429;-42
2023/06/07 08:35:16;;;;;;;4.57;1.95;;;21.20;99.90;;;21.30;67.57;97331.44;5031050;28;20032;-41
2023/06/07 08:37:41;;;;;;;3.22;2.13;;;21.20;99.90;;;21.12;60.19;97328.44;5032134;28;20040;-41
2023/06/07 08:40:09;;;;;;;2.90;2.10;;;21.10;99.80;;;21.00;66.45;97328.53;5017888;28;20057;-41
2023/06/07 08:42:37;;;;;;;2.25;2.03;;;21.00;99.90;;;21.11;65.48;97334.75;5021496;28;20119;-41
2023/06/07 08:45:04;;;;;;;2.28;1.95;;;21.10;99.90;;;21.21;65.31;97334.88;5021681;28;20748;-40
2023/06/07 08:47:32;;;;;;;2.33;2.13;;;21.10;99.90;;;21.30;64.52;97331.44;5029423;28;20028;-42
2023/06/07 08:49:58;;;;;;;2.42;2.22;;;21.30;99.90;;;21.37;61.63;97331.78;5023567;28;20504;-39
2023/06/07 08:52:25;;;;;;;3.85;2.00;;;21.30;99.90;;;21.32;59.85;97336.69;5020121;28;20036;-40
2023/06/07 08:54:55;;;;;;;3.40;2.40;;;21.30;99.50;;;21.39;60.36;97332.53;5033995;28;20033;-42
2023/06/07 08:57:20;;;;;;;3.63;2.40;;;21.30;99.50;;;21.36;58.61;97336.28;5034117;28;20056;-39
2023/06/07 08:59:48;;;;;;;2.17;1.98;;;21.40;98.90;;;21.45;60.66;97332.03;5026781;28;20370;-38
2023/06/07 09:02:15;;;;;;;2.67;1.90;;;21.40;99.40;;;21.61;60.51;97336.16;5008527;28;20605;-38
2023/06/07 09:04:42;;;;;;;2.78;1.90;;;21.60;99.70;;;21.74;59.83;97331.44;5029084;28;20848;-40
2023/06/07 09:07:09;;;;;;;2.83;1.98;;;21.70;99.20;;;21.84;60.45;97335.09;5031403;28;20037;-39
2023/06/07 09:09:36;;;;;;;2.58;1.80;;;21.80;99.20;;;21.99;61.99;97334.78;5022697;28;20362;-38
2023/06/07 09:12:02;;;;;;;2.67;1.70;;;22.00;99.60;;;21.96;58.70;97341.22;5024173;28;20126;-39
2023/06/07 09:14:31;;;;;;;2.63;2.05;;;22.00;98.80;;;21.90;60.95;97337.22;5027941;28;20036;-38
2023/06/07 09:16:59;;;;;;;2.20;1.80;;;22.00;98.90;;;21.72;58.09;97336.09;5024880;28;20064;-38
2023/06/07 09:19:38;;;;;;;2.25;1.90;;;21.80;98.20;;;21.57;57.43;97338.25;5011841;28;20027;-37
2023/06/07 09:22:07;;;;;;;1.70;1.60;;;21.60;97.90;;;21.56;57.92;97341.03;5026232;28;20099;-37
2023/06/07 09:24:33;;;;;;;1.60;1.50;;;21.60;98.00;;;21.71;56.27;97339.75;5027180;28;20119;-39
2023/06/07 09:27:02;;;;;;;1.50;1.40;;;21.80;97.90;;;21.92;57.78;97348.69;5016175;28;20036;-37
2023/06/07 09:29:29;;;;;;;1.83;1.70;;;21.90;97.80;;;22.07;55.62;97340.31;5030911;28;20063;-37
2023/06/07 09:32:24;;;;;;;2.38;1.40;;;22.10;97.30;;;22.37;55.33;97336.03;5018345;28;20091;-37
2023/06/07 09:34:53;;;;;;;2.15;1.50;;;22.40;96.90;;;22.60;55.72;97334.91;5026697;28;20392;-37
2023/06/07 09:37:21;;;;;;;2.42;1.70;;;22.60;97.30;;;22.75;52.75;97339.94;5031681;28;20029;-38
2023/06/07 09:39:51;;;;;;;3.55;1.70;;;22.90;96.00;;;22.78;50.77;97316.31;5027355;28;20790;-37
2023/06/07 09:42:17;;;;;;;2.60;1.70;;;23.00;94.80;;;22.99;52.46;97332.38;5018261;28;20281;-40
2023/06/07 09:44:43;;;;;;;3.35;3.05;;;23.10;95.30;;;23.25;51.19;97338.16;5029018;28;20032;-39
2023/06/07 09:47:21;;;;;;;8.38;6.38;;;23.30;95.00;;;23.43;48.71;97324.03;5023091;28;20597;-39
2023/06/07 09:49:47;;;;;;;6.03;5.40;;;23.60;93.60;;;23.55;49.04;97319.38;5028806;28;20137;-40
2023/06/07 09:52:15;;;;;;;3.85;2.85;;;23.70;93.60;;;23.68;49.25;97328.03;5016610;28;20036;-40
2023/06/07 09:54:45;;;;;;;3.30;1.88;;;23.80;93.50;;;23.80;48.64;97326.94;5009318;28;20039;-41
2023/06/07 09:57:25;;;;;;;3.30;2.00;;;23.90;93.30;;;23.78;49.61;97326.19;5016144;28;20401;-40
2023/06/07 10:00:17;;;;;;;2.33;2.10;;;23.90;93.20;;;23.68;48.29;97324.50;5008361;28;20029;-39
2023/06/07 10:02:45;;;;;;;1.50;1.40;;;23.90;92.40;;;23.68;48.69;97319.94;5018520;28;20529;-41
2023/06/07 10:05:15;;;;;;;2.72;1.90;;;23.80;92.80;;;23.66;50.22;97316.56;4999164;28;20413;-41
2023/06/07 10:07:47;;;;;;;2.13;1.92;;;23.70;93.40;;;23.75;50.42;97318.41;5005528;28;20037;-40
2023/06/07 10:10:16;;;;;;;2.10;1.83;;;23.80;93.70;;;23.63;52.36;97308.75;5019955;28;20080;-39
2023/06/07 10:12:45;;;;;;;1.83;1.73;;;23.70;94.10;;;23.41;51.16;97321.47;5029432;28;20283;-39
2023/06/07 10:15:15;;;;;;;2.60;1.80;;;23.50;93.60;;;23.09;52.81;97326.22;5029904;28;20068;-41
2023/06/07 10:17:48;;;;;;;1.80;1.55;;;23.20;94.00;;;22.85;54.32;97319.31;5023054;28;20233;-40